createdAt,value
2017-05-24T00:01:50.635Z,60.20
2017-05-24T00:04:19.838Z,60.20
2017-05-24T00:06:49.099Z,60.60
2017-05-24T00:09:18.329Z,60.50
2017-05-24T00:11:47.528Z,60.20
2017-05-24T00:14:16.829Z,60.90
2017-05-24T00:16:46.031Z,61.10
2017-05-24T00:19:15.256Z,61.00
2017-05-24T00:21:45.135Z,61.50
2017-05-24T00:24:14.342Z,62.20
2017-05-24T00:26:43.548Z,61.70
2017-05-24T00:29:12.783Z,62.20
2017-05-24T00:31:42.005Z,61.80
2017-05-24T00:34:11.220Z,61.90
2017-05-24T00:36:40.416Z,61.60
2017-05-24T00:39:10.325Z,61.60
2017-05-24T00:41:39.531Z,61.50
2017-05-24T00:44:08.746Z,60.10
2017-05-24T00:46:37.943Z,60.30
2017-05-24T00:49:07.154Z,60.00
2017-05-24T00:51:36.503Z,59.70
2017-05-24T00:54:05.719Z,59.20
2017-05-24T00:56:34.923Z,58.90
2017-05-24T00:59:04.382Z,58.40
2017-05-24T01:01:33.673Z,58.80
2017-05-24T01:04:02.879Z,59.10
2017-05-24T01:06:32.152Z,58.90
2017-05-24T01:09:01.376Z,58.70
2017-05-24T01:11:30.602Z,57.70
2017-05-24T01:13:59.818Z,56.30
2017-05-24T01:16:29.026Z,56.10
2017-05-24T01:18:58.244Z,55.00
2017-05-24T01:21:27.443Z,54.30
2017-05-24T01:23:56.672Z,54.00
2017-05-24T01:26:25.882Z,53.20
2017-05-24T01:28:55.104Z,53.50
2017-05-24T01:31:23.952Z,54.00
2017-05-24T01:33:53.160Z,54.40
2017-05-24T01:36:22.367Z,54.40
2017-05-24T01:38:51.586Z,54.60
2017-05-24T01:41:20.792Z,55.00
2017-05-24T01:43:49.631Z,55.20
2017-05-24T01:46:18.835Z,56.10
2017-05-24T01:48:48.032Z,56.00
2017-05-24T01:51:17.243Z,56.90
2017-05-24T01:53:46.443Z,56.40
2017-05-24T01:56:15.647Z,56.60
2017-05-24T01:58:44.856Z,56.80
2017-05-24T02:01:14.052Z,56.40
2017-05-24T02:03:43.249Z,56.40
2017-05-24T02:06:12.395Z,56.30
2017-05-24T02:08:41.623Z,56.60
2017-05-24T02:11:10.823Z,56.50
2017-05-24T02:13:40.044Z,55.80
2017-05-24T02:16:09.251Z,56.10
2017-05-24T02:18:38.448Z,55.90
2017-05-24T02:21:07.655Z,55.80
2017-05-24T02:23:36.911Z,55.80
2017-05-24T02:26:06.817Z,55.50
2017-05-24T02:28:36.033Z,56.00
2017-05-24T02:31:05.256Z,56.30
2017-05-24T02:33:34.467Z,56.80
2017-05-24T02:36:03.672Z,57.10
2017-05-24T02:38:32.906Z,57.40
2017-05-24T02:41:01.411Z,57.40
2017-05-24T02:43:30.627Z,57.60
2017-05-24T02:45:59.824Z,58.00
2017-05-24T02:48:29.071Z,58.00
2017-05-24T02:50:58.273Z,58.30
2017-05-24T02:53:27.503Z,58.90
2017-05-24T02:55:56.855Z,58.40
2017-05-24T02:58:26.083Z,58.30
2017-05-24T03:00:55.988Z,58.50
2017-05-24T03:03:25.200Z,59.00
2017-05-24T03:05:54.420Z,58.90
2017-05-24T03:08:23.627Z,58.90
2017-05-24T03:10:54.178Z,59.00
2017-05-24T03:13:23.387Z,59.00
2017-05-24T03:15:52.579Z,59.10
2017-05-24T03:18:21.885Z,59.30
2017-05-24T03:20:51.093Z,59.20
2017-05-24T03:23:20.312Z,59.20
2017-05-24T03:25:50.222Z,59.40
2017-05-24T03:28:19.459Z,59.60
2017-05-24T03:30:48.683Z,59.60
2017-05-24T03:33:17.882Z,59.50
2017-05-24T03:35:47.099Z,59.50
2017-05-24T03:38:17.068Z,59.30
2017-05-24T03:40:46.420Z,59.80
2017-05-24T03:43:15.648Z,59.90
2017-05-24T03:45:44.848Z,60.00
2017-05-24T03:48:14.063Z,60.20
2017-05-24T03:50:43.283Z,60.00
2017-05-24T03:53:12.519Z,60.20
2017-05-24T03:55:41.730Z,60.00
2017-05-24T03:58:10.934Z,60.10
2017-05-24T04:00:40.151Z,59.80
2017-05-24T04:03:09.357Z,59.80
2017-05-24T04:05:38.647Z,59.70
2017-05-24T04:08:07.870Z,59.70
2017-05-24T04:10:37.088Z,60.50
2017-05-24T04:13:06.299Z,60.00
2017-05-24T04:15:35.503Z,60.50
2017-05-24T04:18:04.759Z,60.60
2017-05-24T04:20:33.979Z,61.30
2017-05-24T04:23:03.182Z,61.90
2017-05-24T04:25:32.408Z,61.30
2017-05-24T04:28:01.604Z,61.60
2017-05-24T04:30:30.947Z,61.60
2017-05-24T04:33:00.159Z,61.70
2017-05-24T04:35:29.356Z,61.30
2017-05-24T04:37:58.847Z,60.60
2017-05-24T04:40:28.031Z,60.50
2017-05-24T04:42:57.279Z,60.30
2017-05-24T04:45:26.472Z,61.70
2017-05-24T04:47:55.692Z,61.60
2017-05-24T04:50:24.891Z,60.70
2017-05-24T04:52:54.092Z,61.10
2017-05-24T04:55:23.307Z,60.50
2017-05-24T04:57:52.518Z,61.50
2017-05-24T05:00:21.730Z,61.90
2017-05-24T05:02:50.979Z,61.10
2017-05-24T05:05:20.180Z,61.60
2017-05-24T05:07:49.412Z,61.60
2017-05-24T05:10:18.632Z,60.70
2017-05-24T05:12:47.842Z,60.50
2017-05-24T05:15:17.047Z,60.40
2017-05-24T05:17:46.316Z,60.60
2017-05-24T05:20:15.508Z,60.60
2017-05-24T05:22:44.824Z,61.20
2017-05-24T05:25:14.015Z,61.10
2017-05-24T05:27:43.247Z,61.20
2017-05-24T05:30:12.474Z,62.10
2017-05-24T05:32:41.696Z,60.10
2017-05-24T05:35:10.911Z,60.30
2017-05-24T05:37:40.132Z,59.20
2017-05-24T05:40:09.336Z,58.80
2017-05-24T05:42:38.552Z,58.40
2017-05-24T05:45:07.763Z,58.00
2017-05-24T05:47:36.989Z,58.20
2017-05-24T05:50:06.188Z,58.10
2017-05-24T05:52:35.456Z,58.30
2017-05-24T05:55:04.675Z,58.10
2017-05-24T05:57:33.883Z,57.60
2017-05-24T06:00:03.115Z,58.00
2017-05-24T06:02:32.308Z,57.70
2017-05-24T06:05:01.532Z,57.40
2017-05-24T06:07:30.814Z,56.50
2017-05-24T06:10:00.029Z,56.20
2017-05-24T06:12:29.226Z,55.00
2017-05-24T06:14:58.439Z,54.00
2017-05-24T06:17:27.739Z,53.20
2017-05-24T06:19:56.961Z,52.50
2017-05-24T06:22:26.160Z,52.70
2017-05-24T06:24:55.544Z,53.60
2017-05-24T06:27:24.760Z,52.50
2017-05-24T06:29:54.019Z,52.60
2017-05-24T06:32:23.242Z,53.90
2017-05-24T06:34:52.884Z,51.60
2017-05-24T06:37:22.127Z,51.60
2017-05-24T06:39:51.360Z,51.90
2017-05-24T06:42:20.495Z,51.70
2017-05-24T06:44:49.733Z,52.10
2017-05-24T06:47:19.027Z,52.10
2017-05-24T06:49:48.354Z,52.50
2017-05-24T06:52:17.566Z,52.40
2017-05-24T06:54:46.766Z,52.30
2017-05-24T06:57:16.021Z,50.50
2017-05-24T06:59:45.903Z,51.40
2017-05-24T07:02:15.118Z,50.90
2017-05-24T07:04:44.324Z,51.30
2017-05-24T07:07:14.252Z,51.10
2017-05-24T07:09:43.587Z,51.30
2017-05-24T07:12:12.776Z,51.20
2017-05-24T07:14:42.014Z,51.60
2017-05-24T07:17:11.214Z,51.00
2017-05-24T07:19:40.413Z,50.40
2017-05-24T07:22:09.631Z,50.40
2017-05-24T07:24:38.841Z,50.20
2017-05-24T07:27:08.743Z,49.70
2017-05-24T07:29:37.994Z,50.30
2017-05-24T07:32:07.691Z,51.30
2017-05-24T07:34:37.163Z,51.00
2017-05-24T07:37:06.388Z,51.30
2017-05-24T07:39:35.739Z,50.40
2017-05-24T07:42:05.019Z,50.40
2017-05-24T07:44:34.239Z,51.00
2017-05-24T07:47:03.438Z,52.10
2017-05-24T07:49:32.651Z,50.70
2017-05-24T07:52:01.869Z,50.90
2017-05-24T07:54:31.092Z,51.00
2017-05-24T07:57:00.335Z,50.90
2017-05-24T07:59:29.576Z,51.50
2017-05-24T08:01:58.772Z,51.00
2017-05-24T08:04:27.980Z,52.10
2017-05-24T08:06:57.191Z,51.10
2017-05-24T08:09:26.414Z,49.60
2017-05-24T08:11:55.655Z,50.70
2017-05-24T08:14:24.854Z,50.20
2017-05-24T08:16:54.111Z,50.10
2017-05-24T08:19:23.315Z,49.60
2017-05-24T08:21:52.616Z,50.50
2017-05-24T08:24:21.830Z,49.20
2017-05-24T08:26:51.032Z,49.30
2017-05-24T08:29:20.263Z,49.70
2017-05-24T08:31:49.487Z,51.30
2017-05-24T08:34:18.709Z,50.60
2017-05-24T08:36:47.924Z,50.70
2017-05-24T08:39:17.140Z,49.40
2017-05-24T08:41:46.456Z,50.30
2017-05-24T08:44:15.651Z,49.60
2017-05-24T08:46:44.875Z,49.50
2017-05-24T08:49:14.072Z,49.00
2017-05-24T08:51:43.285Z,49.20
2017-05-24T08:54:12.489Z,48.80
2017-05-24T08:56:41.777Z,49.00
2017-05-24T08:59:10.999Z,48.40
2017-05-24T09:01:40.226Z,49.20
2017-05-24T09:04:09.457Z,49.00
2017-05-24T09:06:38.668Z,48.40
2017-05-24T09:09:07.884Z,48.60
2017-05-24T09:11:37.116Z,48.20
2017-05-24T09:14:06.993Z,48.70
2017-05-24T09:16:36.224Z,49.40
2017-05-24T09:19:05.432Z,48.10
2017-05-24T09:21:34.651Z,48.40
2017-05-24T09:24:03.873Z,47.80
2017-05-24T09:26:33.823Z,47.90
2017-05-24T09:29:03.047Z,48.70
2017-05-24T09:31:32.252Z,48.30
2017-05-24T09:34:01.455Z,48.40
2017-05-24T09:36:30.667Z,48.00
2017-05-24T09:38:59.864Z,46.30
2017-05-24T09:41:29.085Z,47.00
2017-05-24T09:43:58.287Z,47.20
2017-05-24T09:46:27.492Z,47.20
2017-05-24T09:48:57.389Z,48.00
2017-05-24T09:51:26.603Z,48.50
2017-05-24T09:53:55.807Z,46.90
2017-05-24T09:56:25.003Z,47.10
2017-05-24T09:58:54.235Z,46.80
2017-05-24T10:01:24.111Z,47.10
2017-05-24T10:03:53.439Z,48.90
2017-05-24T10:06:22.659Z,48.00
2017-05-24T10:08:51.943Z,47.70
2017-05-24T10:11:21.167Z,47.70
2017-05-24T10:13:50.356Z,47.00
2017-05-24T10:16:19.600Z,47.00
2017-05-24T10:18:48.864Z,49.10
2017-05-24T10:21:18.123Z,47.40
2017-05-24T10:23:47.340Z,47.70
2017-05-24T10:26:16.816Z,47.40
2017-05-24T10:28:46.051Z,47.40
2017-05-24T10:31:15.259Z,46.10
2017-05-24T10:33:44.469Z,46.20
2017-05-24T10:36:13.679Z,46.20
2017-05-24T10:38:53.492Z,46.10
2017-05-24T10:41:28.156Z,46.20
2017-05-24T10:43:57.395Z,46.70
2017-05-24T10:46:26.592Z,43.80
2017-05-24T10:48:55.804Z,45.50
2017-05-24T10:51:24.827Z,45.30
2017-05-24T10:53:54.042Z,45.90
2017-05-24T10:56:23.251Z,42.60
2017-05-24T10:58:52.446Z,42.20
2017-05-24T11:01:21.647Z,42.50
2017-05-24T11:03:50.875Z,41.50
2017-05-24T11:06:20.079Z,43.30
2017-05-24T11:08:49.288Z,44.60
2017-05-24T11:11:19.171Z,45.00
2017-05-24T11:13:48.395Z,44.00
2017-05-24T11:16:18.282Z,41.60
2017-05-24T11:18:47.525Z,42.10
2017-05-24T11:21:16.771Z,42.30
2017-05-24T11:23:45.981Z,42.80
2017-05-24T11:26:15.271Z,42.00
2017-05-24T11:28:44.475Z,42.10
2017-05-24T11:31:13.703Z,43.30
2017-05-24T11:33:42.935Z,43.70
2017-05-24T11:36:12.871Z,44.50
2017-05-24T11:38:42.067Z,43.10
2017-05-24T11:41:11.275Z,42.90
2017-05-24T11:43:40.499Z,44.20
2017-05-24T11:46:09.708Z,42.90
2017-05-24T11:48:38.945Z,43.10
2017-05-24T11:51:08.155Z,43.50
2017-05-24T11:53:37.371Z,43.10
2017-05-24T11:56:06.568Z,44.60
2017-05-24T11:58:35.800Z,41.90
2017-05-24T12:01:05.024Z,43.70
2017-05-24T12:03:34.230Z,42.70
2017-05-24T12:06:03.452Z,43.70
2017-05-24T12:08:32.677Z,41.70
2017-05-24T12:11:01.921Z,42.80
2017-05-24T12:13:31.135Z,43.10
2017-05-24T12:16:00.407Z,41.40
2017-05-24T12:18:29.616Z,42.30
2017-05-24T12:20:58.830Z,41.70
2017-05-24T12:23:28.031Z,41.40
2017-05-24T12:25:57.356Z,43.70
2017-05-24T12:28:26.570Z,42.70
2017-05-24T12:30:55.795Z,42.80
2017-05-24T12:33:25.020Z,42.40
2017-05-24T12:35:54.223Z,42.20
2017-05-24T12:38:23.421Z,42.20
2017-05-24T12:40:52.639Z,40.80
2017-05-24T12:43:21.845Z,42.40
2017-05-24T12:45:51.043Z,42.60
2017-05-24T12:48:20.288Z,41.80
2017-05-24T12:50:49.514Z,40.60
2017-05-24T12:53:18.732Z,40.90
2017-05-24T12:55:47.986Z,42.70
2017-05-24T12:58:17.219Z,40.70
2017-05-24T13:00:46.427Z,41.60
2017-05-24T13:03:16.316Z,40.40
2017-05-24T13:05:45.533Z,41.60
2017-05-24T13:08:14.756Z,41.40
2017-05-24T13:10:43.983Z,42.20
2017-05-24T13:13:13.484Z,44.50
2017-05-24T13:15:42.681Z,43.40
2017-05-24T13:18:11.898Z,41.30
2017-05-24T13:20:41.099Z,42.30
2017-05-24T13:23:10.443Z,43.70
2017-05-24T13:25:39.610Z,42.20
2017-05-24T13:28:08.644Z,43.60
2017-05-24T13:30:37.843Z,43.40
2017-05-24T13:33:07.062Z,41.90
2017-05-24T13:35:36.275Z,42.80
2017-05-24T13:38:05.493Z,42.90
2017-05-24T13:40:34.702Z,42.30
2017-05-24T13:43:03.904Z,42.90
2017-05-24T13:45:33.126Z,43.60
2017-05-24T13:48:02.325Z,43.60
2017-05-24T13:50:31.524Z,43.30
2017-05-24T13:53:00.738Z,43.20
2017-05-24T13:55:29.947Z,42.90
2017-05-24T13:57:59.173Z,43.60
2017-05-24T14:00:28.372Z,43.10
2017-05-24T14:02:58.290Z,43.70
2017-05-24T14:05:28.197Z,44.30
2017-05-24T14:07:57.506Z,43.20
2017-05-24T14:10:26.731Z,42.40
2017-05-24T14:12:55.938Z,40.90
2017-05-24T14:15:25.147Z,42.30
2017-05-24T14:17:54.372Z,42.00
2017-05-24T14:20:23.769Z,42.60
2017-05-24T14:22:52.955Z,41.50
2017-05-24T14:25:22.875Z,41.40
2017-05-24T14:27:52.096Z,40.60
2017-05-24T14:30:21.341Z,41.20
2017-05-24T14:32:50.555Z,42.40
2017-05-24T14:35:19.775Z,43.50
2017-05-24T14:37:48.967Z,43.00
2017-05-24T14:40:18.194Z,43.30
2017-05-24T14:42:47.486Z,43.50
2017-05-24T14:45:16.700Z,43.10
2017-05-24T14:47:46.159Z,42.20
2017-05-24T14:50:15.394Z,41.30
2017-05-24T14:52:44.616Z,42.10
2017-05-24T14:55:13.822Z,42.40
2017-05-24T14:57:43.026Z,43.00
2017-05-24T15:00:12.916Z,43.00
2017-05-24T15:02:42.180Z,43.00
2017-05-24T15:05:11.457Z,42.90
2017-05-24T15:07:40.752Z,43.60
2017-05-24T15:10:09.963Z,43.40
2017-05-24T15:12:39.179Z,44.00
2017-05-24T15:15:08.404Z,44.10
2017-05-24T15:17:37.604Z,44.70
2017-05-24T15:20:06.857Z,43.90
2017-05-24T15:22:36.064Z,44.80
2017-05-24T15:25:05.343Z,44.10
2017-05-24T15:27:34.568Z,44.20
2017-05-24T15:30:03.895Z,44.60
2017-05-24T15:32:33.128Z,45.20
2017-05-24T15:35:02.455Z,46.40
2017-05-24T15:37:31.668Z,46.90
2017-05-24T15:40:00.934Z,45.40
2017-05-24T15:42:30.162Z,45.20
2017-05-24T15:44:59.376Z,45.00
2017-05-24T15:47:28.607Z,45.30
2017-05-24T15:49:57.868Z,45.60
2017-05-24T15:52:27.820Z,45.90
2017-05-24T15:54:58.587Z,45.60
2017-05-24T15:57:27.805Z,45.90
2017-05-24T15:59:57.000Z,45.10
2017-05-24T16:02:26.222Z,45.50
2017-05-24T16:04:55.442Z,46.00
2017-05-24T16:07:25.409Z,45.00
2017-05-24T16:09:54.630Z,44.80
2017-05-24T16:12:24.016Z,45.10
2017-05-24T16:14:53.237Z,45.90
2017-05-24T16:17:22.440Z,45.60
2017-05-24T16:19:51.669Z,46.90
2017-05-24T16:22:20.870Z,46.50
2017-05-24T16:24:50.094Z,46.70
2017-05-24T16:27:19.296Z,47.10
2017-05-24T16:29:48.549Z,47.20
2017-05-24T16:32:18.415Z,47.20
2017-05-24T16:34:47.648Z,47.80
2017-05-24T16:37:16.857Z,47.90
2017-05-24T16:39:46.572Z,47.20
2017-05-24T16:42:15.854Z,46.60
2017-05-24T16:44:45.054Z,46.50
2017-05-24T16:47:14.293Z,47.50
2017-05-24T16:49:43.505Z,47.20
2017-05-24T16:52:12.831Z,47.70
2017-05-24T16:54:42.036Z,46.90
2017-05-24T16:57:11.288Z,47.00
2017-05-24T16:59:40.488Z,47.50
2017-05-24T17:02:09.734Z,47.70
2017-05-24T17:04:38.940Z,47.60
2017-05-24T17:07:08.169Z,48.10
2017-05-24T17:09:38.152Z,48.50
2017-05-24T17:12:07.982Z,49.50
2017-05-24T17:14:37.193Z,49.40
2017-05-24T17:17:06.487Z,49.30
2017-05-24T17:19:35.699Z,50.10
2017-05-24T17:22:04.932Z,49.90
2017-05-24T17:24:33.851Z,49.80
2017-05-24T17:27:03.056Z,49.90
2017-05-24T17:29:32.301Z,49.90
2017-05-24T17:32:01.641Z,49.80
2017-05-24T17:34:30.879Z,50.30
2017-05-24T17:37:00.095Z,51.00
2017-05-24T17:39:29.345Z,51.30
2017-05-24T17:41:58.677Z,51.60
2017-05-24T17:44:27.899Z,52.00
2017-05-24T17:46:57.176Z,52.20
2017-05-24T17:49:26.500Z,52.80
2017-05-24T17:51:55.727Z,53.20
2017-05-24T17:54:24.969Z,52.30
2017-05-24T17:56:54.170Z,53.70
2017-05-24T17:59:24.108Z,53.70
2017-05-24T18:01:53.335Z,54.30
2017-05-24T18:04:22.611Z,53.90
2017-05-24T18:06:51.915Z,54.10
2017-05-24T18:09:21.138Z,54.50
2017-05-24T18:11:50.362Z,54.80
2017-05-24T18:14:19.565Z,55.50
2017-05-24T18:16:48.812Z,54.80
2017-05-24T18:19:18.026Z,54.90
2017-05-24T18:21:47.993Z,55.40
2017-05-24T18:24:17.209Z,55.70
2017-05-24T18:26:46.407Z,55.50
2017-05-24T18:29:15.692Z,55.70
2017-05-24T18:31:44.928Z,55.90
2017-05-24T18:34:14.812Z,56.40
2017-05-24T18:36:44.022Z,56.40
2017-05-24T18:39:12.903Z,56.70
2017-05-24T18:41:42.104Z,57.00
2017-05-24T18:44:11.310Z,56.60
2017-05-24T18:46:40.530Z,57.10
2017-05-24T18:49:09.759Z,58.80
2017-05-24T18:51:38.993Z,58.40
2017-05-24T18:54:08.188Z,58.10
2017-05-24T18:56:37.395Z,58.00
2017-05-24T18:59:06.717Z,57.60
2017-05-24T19:01:35.929Z,57.60
2017-05-24T19:04:05.147Z,57.50
2017-05-24T19:06:34.356Z,57.80
2017-05-24T19:09:03.575Z,57.70
2017-05-24T19:11:32.800Z,58.00
2017-05-24T19:14:01.997Z,57.90
2017-05-24T19:16:31.230Z,57.70
2017-05-24T19:19:00.433Z,57.90
2017-05-24T19:21:29.645Z,57.80
2017-05-24T19:23:58.890Z,58.00
2017-05-24T19:26:28.081Z,58.00
2017-05-24T19:28:57.327Z,57.70
2017-05-24T19:31:26.586Z,57.80
2017-05-24T19:33:55.802Z,57.90
2017-05-24T19:36:25.037Z,57.60
2017-05-24T19:38:54.240Z,57.70
2017-05-24T19:41:23.456Z,57.90
2017-05-24T19:43:52.679Z,58.30
2017-05-24T19:46:21.908Z,58.30
2017-05-24T19:48:51.816Z,58.20
2017-05-24T19:51:21.064Z,58.00
2017-05-24T19:53:50.297Z,57.60
2017-05-24T19:56:19.512Z,57.80
2017-05-24T19:58:48.743Z,57.60
2017-05-24T20:01:17.965Z,57.90
2017-05-24T20:03:47.192Z,58.30
2017-05-24T20:06:16.393Z,58.30
2017-05-24T20:08:45.608Z,59.90
2017-05-24T20:11:14.856Z,61.80
2017-05-24T20:13:44.053Z,63.50
2017-05-24T20:16:13.981Z,66.80
2017-05-24T20:18:43.214Z,68.50
2017-05-24T20:21:12.434Z,70.00
2017-05-24T20:23:41.651Z,69.00
2017-05-24T20:26:10.108Z,68.90
2017-05-24T20:28:38.581Z,71.60
2017-05-24T20:31:07.004Z,72.60
2017-05-24T20:33:36.224Z,75.40
2017-05-24T20:36:05.456Z,76.50
2017-05-24T20:38:33.935Z,76.30
2017-05-24T20:41:03.156Z,79.10
2017-05-24T20:43:32.420Z,79.90
2017-05-24T20:46:01.642Z,80.70
2017-05-24T20:48:30.856Z,81.90
2017-05-24T20:51:00.111Z,82.70
2017-05-24T20:53:29.369Z,82.90
2017-05-24T20:55:58.584Z,83.50
2017-05-24T20:58:27.827Z,83.60
2017-05-24T21:00:57.039Z,84.50
2017-05-24T21:03:26.588Z,84.60
2017-05-24T21:05:55.800Z,84.90
2017-05-24T21:08:25.019Z,85.30
2017-05-24T21:10:53.484Z,85.30
2017-05-24T21:13:22.702Z,87.70
2017-05-24T21:15:51.136Z,87.60
2017-05-24T21:18:20.346Z,85.50
2017-05-24T21:20:49.494Z,85.50
2017-05-24T21:23:18.702Z,86.90
2017-05-24T21:25:47.907Z,86.90
2017-05-24T21:28:16.395Z,86.80
2017-05-24T21:30:45.634Z,86.30
2017-05-24T21:33:14.854Z,87.20
2017-05-24T21:35:44.060Z,87.60
2017-05-24T21:38:13.276Z,88.90
2017-05-24T21:40:42.472Z,89.20
2017-05-24T21:43:11.707Z,89.70
2017-05-24T21:45:40.951Z,89.60
2017-05-24T21:48:10.167Z,90.50
2017-05-24T21:50:40.077Z,89.20
2017-05-24T21:53:09.325Z,89.70
2017-05-24T21:55:38.540Z,89.90
2017-05-24T21:58:07.743Z,89.10
2017-05-24T22:00:36.964Z,89.20
2017-05-24T22:03:06.196Z,89.90
2017-05-24T22:05:34.635Z,89.90
2017-05-24T22:08:03.867Z,90.40
2017-05-24T22:10:33.073Z,90.50
2017-05-24T22:13:02.273Z,91.00
2017-05-24T22:15:31.505Z,91.20
2017-05-24T22:18:01.409Z,91.30
2017-05-24T22:20:30.684Z,91.10
2017-05-24T22:22:59.924Z,91.20
2017-05-24T22:25:29.832Z,91.10
2017-05-24T22:27:59.031Z,91.60
2017-05-24T22:30:28.328Z,91.00
2017-05-24T22:32:57.539Z,90.70
2017-05-24T22:35:26.776Z,90.60
2017-05-24T22:37:56.021Z,90.90
2017-05-24T22:40:25.223Z,90.80
2017-05-24T22:42:55.117Z,91.20
2017-05-24T22:45:24.307Z,91.60
2017-05-24T22:47:53.528Z,92.00
2017-05-24T22:50:22.748Z,92.10
2017-05-24T22:52:51.965Z,92.20
2017-05-24T22:55:21.158Z,92.70
2017-05-24T22:57:50.377Z,92.80
2017-05-24T23:00:19.604Z,92.70
2017-05-24T23:02:48.818Z,92.90
2017-05-24T23:05:18.061Z,93.30
2017-05-24T23:07:47.268Z,93.30
2017-05-24T23:10:16.487Z,93.10
2017-05-24T23:12:45.687Z,93.50
2017-05-24T23:15:14.895Z,93.70
2017-05-24T23:17:44.140Z,93.50
2017-05-24T23:20:13.413Z,93.70
2017-05-24T23:22:42.568Z,93.50
2017-05-24T23:25:11.776Z,93.80
2017-05-24T23:27:40.976Z,93.50
2017-05-24T23:30:10.243Z,93.50
2017-05-24T23:32:39.436Z,92.90
2017-05-24T23:35:08.663Z,93.20
2017-05-24T23:37:37.908Z,93.60
2017-05-24T23:40:07.171Z,94.00
2017-05-24T23:42:36.347Z,93.90
2017-05-24T23:45:05.553Z,94.00
2017-05-24T23:47:34.759Z,93.90
2017-05-24T23:50:03.955Z,93.70
2017-05-24T23:52:33.175Z,92.90
2017-05-24T23:55:02.392Z,93.00
2017-05-24T23:57:31.599Z,93.30
